createdAt,value
2019-01-22T00:00:29.768Z,1012.28
2019-01-22T00:01:29.748Z,1012.32
2019-01-22T00:02:29.733Z,1012.27
2019-01-22T00:03:29.718Z,1012.32
2019-01-22T00:04:29.704Z,1012.29
2019-01-22T00:05:29.692Z,1012.27
2019-01-22T00:06:29.677Z,1012.27
2019-01-22T00:07:29.658Z,1012.26
2019-01-22T00:08:29.643Z,1012.24
2019-01-22T00:09:29.633Z,1012.24
2019-01-22T00:10:29.617Z,1012.25
2019-01-22T00:11:29.603Z,1012.20
2019-01-22T00:12:29.589Z,1012.18
2019-01-22T00:13:29.569Z,1012.16
2019-01-22T00:14:29.554Z,1012.12
2019-01-22T00:15:29.539Z,1012.15
2019-01-22T00:16:29.524Z,1012.12
2019-01-22T00:17:29.513Z,1012.12
2019-01-22T00:18:29.499Z,1012.09
2019-01-22T00:19:29.483Z,1012.10
2019-01-22T00:20:29.467Z,1012.07
2019-01-22T00:21:29.448Z,1012.02
2019-01-22T00:22:29.433Z,1012.03
2019-01-22T00:23:29.422Z,1012.03
2019-01-22T00:24:29.558Z,1012.02
2019-01-22T00:25:29.387Z,1012.03
2019-01-22T00:26:29.373Z,1011.98
2019-01-22T00:27:29.358Z,1012.02
2019-01-22T00:28:29.344Z,1011.90
2019-01-22T00:29:29.333Z,1011.92
2019-01-22T00:30:29.318Z,1011.91
2019-01-22T00:31:29.304Z,1011.85
2019-01-22T00:32:29.291Z,1011.84
2019-01-22T00:33:29.272Z,1011.87
2019-01-22T00:34:29.251Z,1011.91
2019-01-22T00:35:29.238Z,1011.87
2019-01-22T00:36:29.221Z,1011.80
2019-01-22T00:37:29.210Z,1011.86
2019-01-22T00:38:29.196Z,1011.84
2019-01-22T00:39:29.178Z,1011.82
2019-01-22T00:40:29.163Z,1011.82
2019-01-22T00:41:29.150Z,1011.75
2019-01-22T00:42:29.134Z,1011.75
2019-01-22T00:43:29.121Z,1011.81
2019-01-22T00:44:29.106Z,1011.75
2019-01-22T00:45:29.086Z,1011.72
2019-01-22T00:46:29.069Z,1011.76
2019-01-22T00:47:29.055Z,1011.77
2019-01-22T00:48:29.040Z,1011.74
2019-01-22T00:49:29.031Z,1011.80
2019-01-22T00:50:29.015Z,1011.75
2019-01-22T00:51:29.002Z,1011.69
2019-01-22T00:52:28.983Z,1011.70
2019-01-22T00:53:28.965Z,1011.67
2019-01-22T00:54:28.949Z,1011.67
2019-01-22T00:55:28.939Z,1011.61
2019-01-22T00:56:28.922Z,1011.60
2019-01-22T00:57:28.904Z,1011.61
2019-01-22T00:58:28.887Z,1011.65
2019-01-22T00:59:28.873Z,1011.59
2019-01-22T01:00:28.859Z,1011.56
2019-01-22T01:01:28.848Z,1011.55
2019-01-22T01:02:28.839Z,1011.57
2019-01-22T01:03:28.817Z,1011.57
2019-01-22T01:04:28.802Z,1011.56
2019-01-22T01:05:28.785Z,1011.54
2019-01-22T01:06:28.767Z,1011.55
2019-01-22T01:07:28.752Z,1011.57
2019-01-22T01:08:28.737Z,1011.55
2019-01-22T01:09:28.726Z,1011.47
2019-01-22T01:10:28.710Z,1011.42
2019-01-22T01:11:28.691Z,1011.47
2019-01-22T01:12:28.676Z,1011.42
2019-01-22T01:13:28.664Z,1011.39
2019-01-22T01:14:28.650Z,1011.38
2019-01-22T01:15:28.634Z,1011.43
2019-01-22T01:16:28.621Z,1011.39
2019-01-22T01:17:28.598Z,1011.33
2019-01-22T01:18:28.582Z,1011.28
2019-01-22T01:19:28.567Z,1011.26
2019-01-22T01:20:28.552Z,1011.19
2019-01-22T01:21:28.543Z,1011.21
2019-01-22T01:22:28.525Z,1011.23
2019-01-22T01:23:28.512Z,1011.16
2019-01-22T01:24:28.498Z,1011.16
2019-01-22T01:25:28.475Z,1011.12
2019-01-22T01:26:28.461Z,1011.10
2019-01-22T01:27:28.450Z,1011.06
2019-01-22T01:28:28.435Z,1011.01
2019-01-22T01:29:28.414Z,1011.02
2019-01-22T01:30:28.400Z,1010.96
2019-01-22T01:31:28.383Z,1010.92
2019-01-22T01:32:28.368Z,1010.98
2019-01-22T01:33:28.357Z,1010.94
2019-01-22T01:34:28.342Z,1010.94
2019-01-22T01:35:28.325Z,1010.92
2019-01-22T01:36:28.311Z,1010.95
2019-01-22T01:37:28.290Z,1010.95
2019-01-22T01:38:28.275Z,1010.94
2019-01-22T01:39:28.263Z,1010.95
2019-01-22T01:40:28.246Z,1010.90
2019-01-22T01:41:28.233Z,1010.91
2019-01-22T01:42:28.219Z,1010.94
2019-01-22T01:43:28.198Z,1010.90
2019-01-22T01:44:28.183Z,1010.85
2019-01-22T01:45:28.173Z,1010.85
2019-01-22T01:46:28.156Z,1010.84
2019-01-22T01:47:28.141Z,1010.81
2019-01-22T01:48:28.126Z,1010.77
2019-01-22T01:49:28.104Z,1010.77
2019-01-22T01:50:28.092Z,1010.73
2019-01-22T01:51:28.078Z,1010.77
2019-01-22T01:52:28.059Z,1010.73
2019-01-22T01:53:28.047Z,1010.76
2019-01-22T01:54:28.032Z,1010.77
2019-01-22T01:55:28.018Z,1010.70
2019-01-22T01:56:28.004Z,1010.67
2019-01-22T01:57:27.982Z,1010.71
2019-01-22T01:58:27.965Z,1010.65
2019-01-22T01:59:27.959Z,1010.63
2019-01-22T02:00:27.942Z,1010.57
2019-01-22T02:01:27.920Z,1010.57
2019-01-22T02:02:27.904Z,1010.61
2019-01-22T02:03:27.889Z,1010.64
2019-01-22T02:04:27.874Z,1010.59
2019-01-22T02:05:27.861Z,1010.57
2019-01-22T02:06:27.847Z,1010.51
2019-01-22T02:07:27.835Z,1010.52
2019-01-22T02:08:27.817Z,1010.48
2019-01-22T02:09:27.796Z,1010.42
2019-01-22T02:10:27.780Z,1010.41
2019-01-22T02:11:27.765Z,1010.43
2019-01-22T02:12:27.748Z,1010.35
2019-01-22T02:13:27.736Z,1010.35
2019-01-22T02:14:27.722Z,1010.37
2019-01-22T02:15:27.704Z,1010.31
2019-01-22T02:16:27.689Z,1010.30
2019-01-22T02:17:27.675Z,1010.30
2019-01-22T02:18:27.661Z,1010.20
2019-01-22T02:19:27.645Z,1010.17
2019-01-22T02:20:27.630Z,1010.23
2019-01-22T02:21:27.610Z,1010.19
2019-01-22T02:22:27.596Z,1010.12
2019-01-22T02:23:30.711Z,1010.10
2019-01-22T02:24:27.564Z,1010.08
2019-01-22T02:25:27.553Z,1010.04
2019-01-22T02:26:27.536Z,1010.08
2019-01-22T02:27:27.521Z,1010.09
2019-01-22T02:28:27.504Z,1010.03
2019-01-22T02:29:27.484Z,1010.05
2019-01-22T02:30:27.477Z,1009.99
2019-01-22T02:31:27.459Z,1010.00
2019-01-22T02:32:27.780Z,1009.96
2019-01-22T02:33:27.472Z,1009.96
2019-01-22T02:34:27.408Z,1009.91
2019-01-22T02:35:27.391Z,1009.94
2019-01-22T02:36:27.378Z,1009.84
2019-01-22T02:37:27.367Z,1009.87
2019-01-22T02:38:27.419Z,1009.83
2019-01-22T02:39:27.336Z,1009.81
2019-01-22T02:40:27.320Z,1009.76
2019-01-22T02:41:27.299Z,1009.72
2019-01-22T02:42:27.283Z,1009.72
2019-01-22T02:43:27.268Z,1009.70
2019-01-22T02:44:27.265Z,1009.72
2019-01-22T02:45:27.240Z,1009.68
2019-01-22T02:46:27.225Z,1009.61
2019-01-22T02:47:27.207Z,1009.60
2019-01-22T02:48:27.192Z,1009.64
2019-01-22T02:49:27.177Z,1009.50
2019-01-22T02:50:27.163Z,1009.54
2019-01-22T02:51:27.148Z,1009.46
2019-01-22T02:52:27.133Z,1009.46
2019-01-22T02:53:27.111Z,1009.40
2019-01-22T02:54:27.098Z,1009.45
2019-01-22T02:55:27.081Z,1009.43
2019-01-22T02:56:27.067Z,1009.32
2019-01-22T02:57:27.055Z,1009.36
2019-01-22T02:58:27.040Z,1009.35
2019-01-22T02:59:27.025Z,1009.33
2019-01-22T03:00:27.007Z,1009.28
2019-01-22T03:01:26.988Z,1009.32
2019-01-22T03:02:26.975Z,1009.29
2019-01-22T03:03:26.961Z,1009.32
2019-01-22T03:04:26.949Z,1009.31
2019-01-22T03:05:26.924Z,1009.29
2019-01-22T03:06:26.910Z,1009.26
2019-01-22T03:07:26.895Z,1009.24
2019-01-22T03:08:26.881Z,1009.21
2019-01-22T03:09:26.868Z,1009.22
2019-01-22T03:10:26.853Z,1009.20
2019-01-22T03:11:26.835Z,1009.24
2019-01-22T03:12:26.821Z,1009.14
2019-01-22T03:13:26.800Z,1009.13
2019-01-22T03:14:26.786Z,1009.13
2019-01-22T03:15:26.769Z,1009.15
2019-01-22T03:16:26.755Z,1009.02
2019-01-22T03:17:26.742Z,1009.07
2019-01-22T03:18:26.729Z,1009.03
2019-01-22T03:19:26.707Z,1009.03
2019-01-22T03:20:26.693Z,1009.00
2019-01-22T03:21:26.681Z,1008.96
2019-01-22T03:22:26.665Z,1008.97
2019-01-22T03:23:26.648Z,1008.95
2019-01-22T03:24:26.633Z,1008.97
2019-01-22T03:25:26.613Z,1008.97
2019-01-22T03:26:26.595Z,1008.97
2019-01-22T03:27:26.583Z,1008.94
2019-01-22T03:28:26.564Z,1008.90
2019-01-22T03:29:26.554Z,1008.94
2019-01-22T03:30:26.538Z,1008.95
2019-01-22T03:31:26.529Z,1008.92
2019-01-22T03:32:26.511Z,1008.90
2019-01-22T03:33:26.489Z,1008.90
2019-01-22T03:34:26.472Z,1008.89
2019-01-22T03:35:26.460Z,1008.91
2019-01-22T03:36:26.445Z,1008.85
2019-01-22T03:37:26.624Z,1008.80
2019-01-22T03:38:28.000Z,1008.73
2019-01-22T03:39:26.393Z,1008.78
2019-01-22T03:40:26.378Z,1008.74
2019-01-22T03:41:26.364Z,1008.72
2019-01-22T03:42:26.348Z,1008.68
2019-01-22T03:43:26.333Z,1008.64
2019-01-22T03:44:26.318Z,1008.67
2019-01-22T03:45:26.296Z,1008.68
2019-01-22T03:46:26.280Z,1008.67
2019-01-22T03:47:26.265Z,1008.60
2019-01-22T03:48:26.255Z,1008.64
2019-01-22T03:49:26.238Z,1008.56
2019-01-22T03:50:26.224Z,1008.59
2019-01-22T03:51:26.202Z,1008.60
2019-01-22T03:52:26.186Z,1008.60
2019-01-22T03:53:26.174Z,1008.55
2019-01-22T03:54:26.164Z,1008.53
2019-01-22T03:55:26.142Z,1008.56
2019-01-22T03:56:26.128Z,1008.51
2019-01-22T03:57:26.106Z,1008.50
2019-01-22T03:58:26.090Z,1008.50
2019-01-22T03:59:26.077Z,1008.45
2019-01-22T04:00:26.059Z,1008.44
2019-01-22T04:01:26.047Z,1008.41
2019-01-22T04:02:26.031Z,1008.35
2019-01-22T04:03:26.016Z,1008.37
2019-01-22T04:04:26.001Z,1008.30
2019-01-22T04:05:25.981Z,1008.33
2019-01-22T04:06:25.964Z,1008.29
2019-01-22T04:07:25.955Z,1008.30
2019-01-22T04:08:25.937Z,1008.29
2019-01-22T04:09:25.915Z,1008.26
2019-01-22T04:10:25.899Z,1008.23
2019-01-22T04:11:25.883Z,1008.18
2019-01-22T04:12:25.871Z,1008.23
2019-01-22T04:13:25.854Z,1008.20
2019-01-22T04:14:25.844Z,1008.16
2019-01-22T04:15:25.820Z,1008.16
2019-01-22T04:16:25.810Z,1008.22
2019-01-22T04:17:25.794Z,1008.09
2019-01-22T04:18:25.777Z,1008.05
2019-01-22T04:19:25.760Z,1008.07
2019-01-22T04:20:25.745Z,1008.09
2019-01-22T04:21:25.724Z,1008.03
2019-01-22T04:22:25.708Z,1008.04
2019-01-22T04:23:25.701Z,1007.96
2019-01-22T04:24:25.681Z,1007.98
2019-01-22T04:25:25.659Z,1007.91
2019-01-22T04:26:25.647Z,1007.97
2019-01-22T04:27:25.631Z,1007.96
2019-01-22T04:28:25.613Z,1007.91
2019-01-22T04:29:25.603Z,1007.87
2019-01-22T04:30:25.590Z,1007.84
2019-01-22T04:31:25.572Z,1007.91
2019-01-22T04:32:25.555Z,1007.83
2019-01-22T04:33:25.534Z,1007.85
2019-01-22T04:34:25.557Z,1007.83
2019-01-22T04:35:25.502Z,1007.79
2019-01-22T04:36:25.487Z,1007.75
2019-01-22T04:37:25.476Z,1007.78
2019-01-22T04:38:25.459Z,1007.71
2019-01-22T04:39:25.441Z,1007.70
2019-01-22T04:40:25.422Z,1007.74
2019-01-22T04:41:25.412Z,1007.71
2019-01-22T04:42:25.395Z,1007.68
2019-01-22T04:43:25.381Z,1007.69
2019-01-22T04:44:25.365Z,1007.66
2019-01-22T04:45:25.343Z,1007.65
2019-01-22T04:46:25.328Z,1007.69
2019-01-22T04:47:25.315Z,1007.63
2019-01-22T04:48:25.296Z,1007.62
2019-01-22T04:49:25.286Z,1007.57
2019-01-22T04:50:25.272Z,1007.57
2019-01-22T04:51:25.253Z,1007.57
2019-01-22T04:52:25.238Z,1007.59
2019-01-22T04:53:25.216Z,1007.55
2019-01-22T04:54:25.203Z,1007.45
2019-01-22T04:55:25.193Z,1007.43
2019-01-22T04:56:25.175Z,1007.45
2019-01-22T04:57:25.154Z,1007.38
2019-01-22T04:58:25.139Z,1007.32
2019-01-22T04:59:25.124Z,1007.34
2019-01-22T05:00:25.111Z,1007.27
2019-01-22T05:01:25.097Z,1007.31
2019-01-22T05:02:25.081Z,1007.29
2019-01-22T05:03:25.065Z,1007.22
2019-01-22T05:04:25.049Z,1007.25
2019-01-22T05:05:25.029Z,1007.21
2019-01-22T05:06:25.013Z,1007.21
2019-01-22T05:07:24.996Z,1007.22
2019-01-22T05:08:24.980Z,1007.21
2019-01-22T05:09:24.969Z,1007.23
2019-01-22T05:10:24.956Z,1007.22
2019-01-22T05:11:24.991Z,1007.18
2019-01-22T05:12:24.919Z,1007.19
2019-01-22T05:13:24.907Z,1007.19
2019-01-22T05:14:24.894Z,1007.12
2019-01-22T05:15:24.878Z,1007.12
2019-01-22T05:16:24.862Z,1007.09
2019-01-22T05:17:24.840Z,1007.08
2019-01-22T05:18:24.825Z,1007.03
2019-01-22T05:19:24.809Z,1007.11
2019-01-22T05:20:24.795Z,1007.04
2019-01-22T05:21:24.781Z,1007.05
2019-01-22T05:22:24.765Z,1006.95
2019-01-22T05:23:24.752Z,1007.00
2019-01-22T05:24:24.735Z,1006.91
2019-01-22T05:25:24.716Z,1006.94
2019-01-22T05:26:24.699Z,1006.99
2019-01-22T05:27:24.688Z,1006.88
2019-01-22T05:28:24.676Z,1006.88
2019-01-22T05:29:24.653Z,1006.88
2019-01-22T05:30:24.637Z,1006.82
2019-01-22T05:31:24.621Z,1006.83
2019-01-22T05:32:24.605Z,1006.81
2019-01-22T05:33:24.593Z,1006.85
2019-01-22T05:34:24.577Z,1006.78
2019-01-22T05:35:24.562Z,1006.81
2019-01-22T05:36:24.545Z,1006.78
2019-01-22T05:37:24.527Z,1006.75
2019-01-22T05:38:24.510Z,1006.80
2019-01-22T05:39:24.496Z,1006.83
2019-01-22T05:40:24.480Z,1006.80
2019-01-22T05:41:24.467Z,1006.78
2019-01-22T05:42:24.452Z,1006.79
2019-01-22T05:43:24.433Z,1006.71
2019-01-22T05:44:24.416Z,1006.72
2019-01-22T05:45:24.406Z,1006.73
2019-01-22T05:46:24.393Z,1006.79
2019-01-22T05:47:24.374Z,1006.71
2019-01-22T05:48:24.359Z,1006.74
2019-01-22T05:49:24.339Z,1006.68
2019-01-22T05:50:24.322Z,1006.71
2019-01-22T05:51:24.305Z,1006.67
2019-01-22T05:52:24.292Z,1006.70
2019-01-22T05:53:24.279Z,1006.63
2019-01-22T05:54:25.250Z,1006.64
2019-01-22T05:55:24.255Z,1006.62
2019-01-22T05:56:24.234Z,1006.66
2019-01-22T05:57:24.211Z,1006.59
2019-01-22T05:58:24.196Z,1006.56
2019-01-22T05:59:24.187Z,1006.56
2019-01-22T06:00:24.172Z,1006.55
2019-01-22T06:01:24.151Z,1006.53
2019-01-22T06:02:24.132Z,1006.44
2019-01-22T06:03:24.119Z,1006.45
2019-01-22T06:04:24.111Z,1006.48
2019-01-22T06:05:24.090Z,1006.48
2019-01-22T06:06:24.075Z,1006.50
2019-01-22T06:07:24.057Z,1006.45
2019-01-22T06:08:24.044Z,1006.44
2019-01-22T06:09:24.021Z,1006.36
2019-01-22T06:10:24.009Z,1006.37
2019-01-22T06:11:23.993Z,1006.35
2019-01-22T06:12:23.978Z,1006.28
2019-01-22T06:13:23.966Z,1006.32
2019-01-22T06:14:23.949Z,1006.29
2019-01-22T06:15:23.930Z,1006.29
2019-01-22T06:16:23.914Z,1006.33
2019-01-22T06:17:23.906Z,1006.26
2019-01-22T06:18:23.888Z,1006.26
2019-01-22T06:19:23.876Z,1006.22
2019-01-22T06:20:23.855Z,1006.19
2019-01-22T06:21:23.854Z,1006.21
2019-01-22T06:22:23.838Z,1006.14
2019-01-22T06:23:23.813Z,1006.14
2019-01-22T06:24:23.791Z,1006.15
2019-01-22T06:25:23.782Z,1006.12
2019-01-22T06:26:23.769Z,1006.17
2019-01-22T06:27:24.463Z,1006.15
2019-01-22T06:28:23.731Z,1006.06
2019-01-22T06:29:23.708Z,1006.05
2019-01-22T06:30:23.693Z,1006.07
2019-01-22T06:31:23.683Z,1006.01
2019-01-22T06:32:23.667Z,1006.00
2019-01-22T06:33:23.657Z,1006.05
2019-01-22T06:34:23.632Z,1005.97
2019-01-22T06:35:23.615Z,1005.94
2019-01-22T06:36:23.609Z,1005.95
2019-01-22T06:37:23.591Z,1005.92
2019-01-22T06:38:23.573Z,1005.89
2019-01-22T06:39:23.559Z,1005.83
2019-01-22T06:40:23.554Z,1005.86
2019-01-22T06:41:23.522Z,1005.81
2019-01-22T06:42:23.505Z,1005.84
2019-01-22T06:43:23.489Z,1005.83
2019-01-22T06:44:23.475Z,1005.78
2019-01-22T06:45:23.462Z,1005.75
2019-01-22T06:46:23.447Z,1005.69
2019-01-22T06:47:23.428Z,1005.67
2019-01-22T06:48:23.412Z,1005.66
2019-01-22T06:49:23.400Z,1005.67
2019-01-22T06:50:23.385Z,1005.67
2019-01-22T06:51:23.369Z,1005.68
2019-01-22T06:52:23.355Z,1005.63
2019-01-22T06:53:23.333Z,1005.56
2019-01-22T06:54:23.318Z,1005.55
2019-01-22T06:55:23.301Z,1005.58
2019-01-22T06:56:23.286Z,1005.51
2019-01-22T06:57:23.275Z,1005.45
2019-01-22T06:58:23.260Z,1005.45
2019-01-22T06:59:23.244Z,1005.40
2019-01-22T07:00:23.227Z,1005.43
2019-01-22T07:01:23.207Z,1005.41
2019-01-22T07:02:23.191Z,1005.42
2019-01-22T07:03:23.188Z,1005.41
2019-01-22T07:04:23.166Z,1005.40
2019-01-22T07:05:23.146Z,1005.47
2019-01-22T07:06:23.130Z,1005.41
2019-01-22T07:07:23.115Z,1005.42
2019-01-22T07:08:23.100Z,1005.41
2019-01-22T07:09:23.089Z,1005.38
2019-01-22T07:10:23.074Z,1005.39
2019-01-22T07:11:23.056Z,1005.30
2019-01-22T07:12:23.042Z,1005.36
2019-01-22T07:13:23.029Z,1005.35
2019-01-22T07:14:23.012Z,1005.32
2019-01-22T07:15:22.988Z,1005.29
2019-01-22T07:16:22.974Z,1005.35
2019-01-22T07:17:22.961Z,1005.30
2019-01-22T07:18:22.946Z,1005.34
2019-01-22T07:19:22.926Z,1005.32
2019-01-22T07:20:22.912Z,1005.33
2019-01-22T07:21:22.900Z,1005.31
2019-01-22T07:22:22.884Z,1005.29
2019-01-22T07:23:22.869Z,1005.28
2019-01-22T07:24:22.855Z,1005.24
2019-01-22T07:25:22.832Z,1005.26
2019-01-22T07:26:22.816Z,1005.11
2019-01-22T07:27:22.802Z,1005.25
2019-01-22T07:28:22.785Z,1005.20
2019-01-22T07:29:22.776Z,1005.20
2019-01-22T07:30:22.759Z,1005.25
2019-01-22T07:31:22.745Z,1005.28
2019-01-22T07:32:22.732Z,1005.24
2019-01-22T07:33:22.708Z,1005.27
2019-01-22T07:34:22.692Z,1005.24
2019-01-22T07:35:22.682Z,1005.20
2019-01-22T07:36:22.667Z,1005.31
2019-01-22T07:37:22.646Z,1005.20
2019-01-22T07:38:22.631Z,1005.20
2019-01-22T07:39:22.617Z,1005.15
2019-01-22T07:40:22.600Z,1005.17
2019-01-22T07:41:22.588Z,1005.16
2019-01-22T07:42:22.572Z,1005.22
2019-01-22T07:43:22.557Z,1005.20
2019-01-22T07:44:22.542Z,1005.20
2019-01-22T07:45:22.520Z,1005.23
2019-01-22T07:46:22.505Z,1005.19
2019-01-22T07:47:22.491Z,1005.26
2019-01-22T07:48:22.477Z,1005.24
2019-01-22T07:49:22.464Z,1005.27
2019-01-22T07:50:22.449Z,1005.20
2019-01-22T07:51:22.428Z,1005.16
2019-01-22T07:52:22.414Z,1005.21
2019-01-22T07:53:22.402Z,1005.18
2019-01-22T07:54:22.387Z,1005.11
2019-01-22T07:55:22.371Z,1005.09
2019-01-22T07:56:22.356Z,1005.14
2019-01-22T07:57:22.335Z,1005.19
2019-01-22T07:58:22.321Z,1005.14
2019-01-22T07:59:22.304Z,1005.14
2019-01-22T08:00:22.290Z,1005.16
2019-01-22T08:01:22.278Z,1005.22
2019-01-22T08:02:22.263Z,1005.17
2019-01-22T08:03:22.251Z,1005.17
2019-01-22T08:04:22.233Z,1005.21
2019-01-22T08:05:22.213Z,1005.16
2019-01-22T08:06:22.198Z,1005.23
2019-01-22T08:07:22.187Z,1005.09
2019-01-22T08:08:22.172Z,1005.10
2019-01-22T08:09:22.152Z,1005.11
2019-01-22T08:10:22.136Z,1005.19
2019-01-22T08:11:22.123Z,1005.07
2019-01-22T08:12:22.107Z,1005.03
2019-01-22T08:13:22.145Z,1004.98
2019-01-22T08:14:22.080Z,1004.98
2019-01-22T08:15:22.066Z,1004.98
2019-01-22T08:16:22.050Z,1005.00
2019-01-22T08:17:22.030Z,1004.98
2019-01-22T08:18:22.017Z,1005.06
2019-01-22T08:19:22.002Z,1005.01
2019-01-22T08:20:21.986Z,1004.94
2019-01-22T08:21:21.976Z,1004.94
2019-01-22T08:22:21.962Z,1004.89
2019-01-22T08:23:21.943Z,1004.93
2019-01-22T08:24:21.931Z,1004.98
2019-01-22T08:25:21.919Z,1004.95
2019-01-22T08:26:21.905Z,1004.94
2019-01-22T08:27:21.891Z,1004.98
2019-01-22T08:28:21.878Z,1004.92
2019-01-22T08:29:21.858Z,1004.89
2019-01-22T08:30:21.847Z,1004.88
2019-01-22T08:31:21.833Z,1004.88
2019-01-22T08:32:21.821Z,1004.85
2019-01-22T08:33:21.812Z,1004.91
2019-01-22T08:34:21.800Z,1004.89
2019-01-22T08:35:21.787Z,1004.83
2019-01-22T08:36:21.777Z,1004.86
2019-01-22T08:37:21.759Z,1004.86
2019-01-22T08:38:21.750Z,1004.83
2019-01-22T08:39:21.741Z,1004.88
2019-01-22T08:40:21.730Z,1004.80
2019-01-22T08:41:21.712Z,1004.89
2019-01-22T08:42:21.701Z,1004.85
2019-01-22T08:43:21.693Z,1004.84
2019-01-22T08:44:21.679Z,1004.83
2019-01-22T08:45:21.672Z,1004.86
2019-01-22T08:46:21.661Z,1004.89
2019-01-22T08:47:21.650Z,1004.84
2019-01-22T08:48:21.646Z,1004.82
2019-01-22T08:49:21.626Z,1004.86
2019-01-22T08:50:21.615Z,1004.77
2019-01-22T08:51:21.604Z,1004.83
2019-01-22T08:52:21.595Z,1004.66
2019-01-22T08:53:21.589Z,1004.59
2019-01-22T08:54:21.583Z,1004.63
2019-01-22T08:55:21.564Z,1004.71
2019-01-22T08:56:21.554Z,1004.57
2019-01-22T08:57:21.547Z,1004.60
2019-01-22T08:58:21.540Z,1004.55
2019-01-22T08:59:21.525Z,1004.55
2019-01-22T09:00:21.517Z,1004.50
2019-01-22T09:01:21.499Z,1004.53
2019-01-22T09:02:21.487Z,1004.50
2019-01-22T09:03:21.475Z,1004.47
2019-01-22T09:04:21.464Z,1004.40
2019-01-22T09:05:21.457Z,1004.37
2019-01-22T09:06:21.445Z,1004.45
2019-01-22T09:07:21.434Z,1004.42
2019-01-22T09:08:21.427Z,1004.38
2019-01-22T09:09:21.456Z,1004.36
2019-01-22T09:10:21.394Z,1004.35
2019-01-22T09:11:22.124Z,1004.38
2019-01-22T09:12:21.376Z,1004.42
2019-01-22T09:13:21.357Z,1004.33
2019-01-22T09:14:21.351Z,1004.28
2019-01-22T09:15:21.341Z,1004.29
2019-01-22T09:16:21.321Z,1004.32
2019-01-22T09:17:21.312Z,1004.19
2019-01-22T09:18:21.300Z,1004.28
2019-01-22T09:19:21.288Z,1004.25
2019-01-22T09:20:21.274Z,1004.21
2019-01-22T09:21:21.260Z,1004.21
2019-01-22T09:22:21.249Z,1004.08
2019-01-22T09:23:21.232Z,1004.12
2019-01-22T09:24:21.222Z,1004.12
2019-01-22T09:25:21.213Z,1004.13
2019-01-22T09:26:21.202Z,1004.08
2019-01-22T09:27:21.185Z,1004.04
2019-01-22T09:28:21.172Z,1004.06
2019-01-22T09:29:22.425Z,1004.08
2019-01-22T09:30:21.151Z,1003.99
2019-01-22T09:31:21.139Z,1003.97
2019-01-22T09:32:21.129Z,1003.94
2019-01-22T09:33:21.111Z,1003.91
2019-01-22T09:34:21.099Z,1003.96
2019-01-22T09:35:21.086Z,1004.02
2019-01-22T09:36:21.078Z,1003.81
2019-01-22T09:37:21.068Z,1003.86
2019-01-22T09:38:21.057Z,1003.82
2019-01-22T09:39:21.046Z,1003.75
2019-01-22T09:40:24.306Z,1003.73
2019-01-22T09:41:21.019Z,1003.73
2019-01-22T09:42:21.008Z,1003.69
2019-01-22T09:43:21.002Z,1003.72
2019-01-22T09:44:20.991Z,1003.71
2019-01-22T09:45:20.980Z,1003.74
2019-01-22T09:46:20.966Z,1003.72
2019-01-22T09:47:20.957Z,1003.66
2019-01-22T09:48:20.954Z,1003.64
2019-01-22T09:49:20.941Z,1003.64
2019-01-22T09:50:20.932Z,1003.63
2019-01-22T09:51:20.923Z,1003.67
2019-01-22T09:52:20.914Z,1003.62
2019-01-22T09:53:20.899Z,1003.51
2019-01-22T09:54:20.891Z,1003.53
2019-01-22T09:55:22.593Z,1003.47
2019-01-22T09:56:20.874Z,1003.50
2019-01-22T09:57:20.870Z,1003.48
2019-01-22T09:58:20.858Z,1003.47
2019-01-22T09:59:20.846Z,1003.42
2019-01-22T10:00:20.843Z,1003.41
2019-01-22T10:01:20.832Z,1003.48
2019-01-22T10:02:20.823Z,1003.38
2019-01-22T10:03:20.816Z,1003.38
2019-01-22T10:04:20.806Z,1003.39
2019-01-22T10:05:20.793Z,1003.32
2019-01-22T10:06:20.786Z,1003.45
2019-01-22T10:07:20.773Z,1003.45
2019-01-22T10:08:20.764Z,1003.37
2019-01-22T10:09:20.761Z,1003.42
2019-01-22T10:10:20.749Z,1003.38
2019-01-22T10:11:20.739Z,1003.42
2019-01-22T10:12:20.730Z,1003.42
2019-01-22T10:13:20.715Z,1003.45
2019-01-22T10:14:20.705Z,1003.40
2019-01-22T10:15:20.699Z,1003.43
2019-01-22T10:16:20.692Z,1003.42
2019-01-22T10:17:20.675Z,1003.36
2019-01-22T10:18:20.664Z,1003.39
2019-01-22T10:19:20.655Z,1003.41
2019-01-22T10:20:20.645Z,1003.37
2019-01-22T10:21:20.639Z,1003.45
2019-01-22T10:22:20.630Z,1003.32
2019-01-22T10:23:20.619Z,1003.29
2019-01-22T10:24:20.609Z,1003.27
2019-01-22T10:25:20.599Z,1003.28
2019-01-22T10:26:20.584Z,1003.20
2019-01-22T10:27:20.580Z,1003.12
2019-01-22T10:28:20.567Z,1003.18
2019-01-22T10:29:20.560Z,1003.20
2019-01-22T10:30:20.601Z,1003.21
2019-01-22T10:31:20.535Z,1003.31
2019-01-22T10:32:20.527Z,1003.28
2019-01-22T10:33:20.520Z,1003.14
2019-01-22T10:34:20.509Z,1003.20
2019-01-22T10:35:20.502Z,1003.22
2019-01-22T10:36:20.492Z,1003.13
2019-01-22T10:37:20.478Z,1003.16
2019-01-22T10:38:20.466Z,1003.12
2019-01-22T10:39:20.457Z,1003.14
2019-01-22T10:40:20.449Z,1003.04
2019-01-22T10:41:20.439Z,1003.05
2019-01-22T10:42:20.432Z,1002.99
2019-01-22T10:43:20.422Z,1003.02
2019-01-22T10:44:20.412Z,1002.96
2019-01-22T10:45:20.452Z,1003.00
2019-01-22T10:46:20.386Z,1003.05
2019-01-22T10:47:20.381Z,1003.01
2019-01-22T10:48:20.371Z,1002.98
2019-01-22T10:49:20.356Z,1002.95
2019-01-22T10:50:20.345Z,1002.93
2019-01-22T10:51:20.334Z,1002.89
2019-01-22T10:52:20.324Z,1002.84
2019-01-22T10:53:20.319Z,1002.84
2019-01-22T10:54:20.310Z,1002.87
2019-01-22T10:55:20.303Z,1002.80
2019-01-22T10:56:20.287Z,1002.88
2019-01-22T10:57:20.271Z,1002.78
2019-01-22T10:58:20.261Z,1002.83
2019-01-22T10:59:20.250Z,1002.95
2019-01-22T11:00:20.238Z,1002.85
2019-01-22T11:01:20.232Z,1002.88
2019-01-22T11:02:20.220Z,1002.83
2019-01-22T11:03:20.207Z,1002.78
2019-01-22T11:04:20.194Z,1002.76
2019-01-22T11:05:20.187Z,1002.82
2019-01-22T11:06:20.176Z,1002.68
2019-01-22T11:07:20.164Z,1002.75
2019-01-22T11:08:20.154Z,1002.69
2019-01-22T11:09:20.135Z,1002.63
2019-01-22T11:10:20.126Z,1002.63
2019-01-22T11:11:20.113Z,1002.68
2019-01-22T11:12:20.104Z,1002.73
2019-01-22T11:13:20.095Z,1002.63
2019-01-22T11:14:20.084Z,1002.69
2019-01-22T11:15:20.073Z,1002.59
2019-01-22T11:16:20.063Z,1002.60
2019-01-22T11:17:20.046Z,1002.64
2019-01-22T11:18:20.035Z,1002.55
2019-01-22T11:19:20.029Z,1002.61
2019-01-22T11:20:20.017Z,1002.56
2019-01-22T11:21:20.002Z,1002.58
2019-01-22T11:22:19.989Z,1002.54
2019-01-22T11:23:19.984Z,1002.50
2019-01-22T11:24:19.968Z,1002.51
2019-01-22T11:25:19.959Z,1002.52
2019-01-22T11:26:19.949Z,1002.50
2019-01-22T11:27:19.938Z,1002.51
2019-01-22T11:28:19.928Z,1002.49
2019-01-22T11:29:19.911Z,1002.50
2019-01-22T11:30:19.900Z,1002.41
2019-01-22T11:31:19.888Z,1002.52
2019-01-22T11:32:19.879Z,1002.45
2019-01-22T11:33:19.871Z,1002.37
2019-01-22T11:34:19.859Z,1002.39
2019-01-22T11:35:19.848Z,1002.51
2019-01-22T11:36:19.831Z,1002.44
2019-01-22T11:37:19.824Z,1002.33
2019-01-22T11:38:19.813Z,1002.30
2019-01-22T11:39:19.805Z,1002.30
2019-01-22T11:40:19.787Z,1002.30
2019-01-22T11:41:19.771Z,1002.15
2019-01-22T11:42:19.759Z,1002.31
2019-01-22T11:43:19.747Z,1002.30
2019-01-22T11:44:19.736Z,1002.21
2019-01-22T11:45:19.728Z,1002.23
2019-01-22T11:46:19.716Z,1002.31
2019-01-22T11:47:19.703Z,1002.14
2019-01-22T11:48:19.694Z,1002.16
2019-01-22T11:49:23.393Z,1002.16
2019-01-22T11:50:19.667Z,1002.17
2019-01-22T11:51:19.654Z,1002.15
2019-01-22T11:52:19.641Z,1002.06
2019-01-22T11:53:19.624Z,1002.16
2019-01-22T11:54:19.611Z,1002.04
2019-01-22T11:55:19.602Z,1002.05
2019-01-22T11:56:19.588Z,1002.12
2019-01-22T11:57:19.580Z,1002.12
2019-01-22T11:58:19.569Z,1002.01
2019-01-22T11:59:19.554Z,1002.15
2019-01-22T12:00:19.544Z,1002.20
2019-01-22T12:01:19.525Z,1002.00
2019-01-22T12:02:19.513Z,1002.06
2019-01-22T12:03:19.502Z,1002.06
2019-01-22T12:04:19.487Z,1001.99
2019-01-22T12:05:19.477Z,1002.10